Terminal Aerodrome Forecast
Issued by NWS

Home | Current Version | Previous Version | Text Only | Print | Product List | Glossary On
Versions: 1 2 3 4 5 6 7 8 9 10 11 12 13 14 15 16
000
FTUS43 KFGF 241700
TAFTVF
TAF
KTVF 241720Z 2418/2518 14011KT 6SM -RA FEW008 BKN015
      TEMPO 2418/2419 4SM -RA BR BKN008
     FM242000 14008KT 3SM -RA BR OVC015
     FM242200 16008KT 4SM -RA OVC020
     FM250200 VRB04KT 5SM -RA BKN025
     FM251400 03007KT P6SM BKN020
      AMD LTD TO CLD VIS AND WIND=

USA.gov is the U.S. government's official web portal to all federal, state and local government web resources and services.